sensor_id;sensor_type;location;lat;lon;timestamp;temperature;humidity
7206;DHT22;3644;53.480;10.004;2023-03-21T00:00:19;11.40;99.90
7206;DHT22;3644;53.480;10.004;2023-03-21T00:02:45;11.30;99.90
7206;DHT22;3644;53.480;10.004;2023-03-21T00:05:11;11.30;99.90
7206;DHT22;3644;53.480;10.004;2023-03-21T00:07:36;11.30;99.90
7206;DHT22;3644;53.480;10.004;2023-03-21T00:10:02;11.30;99.90
7206;DHT22;3644;53.480;10.004;2023-03-21T00:12:28;11.20;99.90
7206;DHT22;3644;53.480;10.004;2023-03-21T00:14:57;11.30;99.90
7206;DHT22;3644;53.480;10.004;2023-03-21T00:17:29;11.40;99.90
7206;DHT22;3644;53.480;10.004;2023-03-21T00:19:58;11.40;99.90
7206;DHT22;3644;53.480;10.004;2023-03-21T00:22:24;11.30;99.90
7206;DHT22;3644;53.480;10.004;2023-03-21T00:24:50;11.20;99.90
7206;DHT22;3644;53.480;10.004;2023-03-21T00:27:16;11.20;99.90
7206;DHT22;3644;53.480;10.004;2023-03-21T00:29:44;11.20;99.90
7206;DHT22;3644;53.480;10.004;2023-03-21T00:32:10;11.20;99.90
7206;DHT22;3644;53.480;10.004;2023-03-21T00:34:36;11.20;99.90
7206;DHT22;3644;53.480;10.004;2023-03-21T00:37:02;11.20;99.90
7206;DHT22;3644;53.480;10.004;2023-03-21T00:39:28;11.20;99.90
7206;DHT22;3644;53.480;10.004;2023-03-21T00:41:54;11.20;99.90
7206;DHT22;3644;53.480;10.004;2023-03-21T00:44:19;11.20;99.90
7206;DHT22;3644;53.480;10.004;2023-03-21T00:46:45;11.20;99.90
7206;DHT22;3644;53.480;10.004;2023-03-21T00:49:11;11.20;99.90
7206;DHT22;3644;53.480;10.004;2023-03-21T00:51:36;11.20;99.90
7206;DHT22;3644;53.480;10.004;2023-03-21T00:54:02;11.20;99.90
7206;DHT22;3644;53.480;10.004;2023-03-21T00:56:30;11.20;99.90
7206;DHT22;3644;53.480;10.004;2023-03-21T00:58:55;11.20;99.90
7206;DHT22;3644;53.480;10.004;2023-03-21T01:01:21;11.30;99.90
7206;DHT22;3644;53.480;10.004;2023-03-21T01:03:46;11.30;99.90
7206;DHT22;3644;53.480;10.004;2023-03-21T01:06:16;11.20;99.90
7206;DHT22;3644;53.480;10.004;2023-03-21T01:08:44;11.20;99.90
7206;DHT22;3644;53.480;10.004;2023-03-21T01:11:16;11.30;99.90
7206;DHT22;3644;53.480;10.004;2023-03-21T01:13:41;11.30;99.90
7206;DHT22;3644;53.480;10.004;2023-03-21T01:16:08;11.30;99.90
7206;DHT22;3644;53.480;10.004;2023-03-21T01:18:35;11.40;99.90
7206;DHT22;3644;53.480;10.004;2023-03-21T01:21:06;11.40;99.90
7206;DHT22;3644;53.480;10.004;2023-03-21T01:23:31;11.30;99.90
7206;DHT22;3644;53.480;10.004;2023-03-21T01:25:57;11.20;99.90
7206;DHT22;3644;53.480;10.004;2023-03-21T01:28:25;11.30;99.90
7206;DHT22;3644;53.480;10.004;2023-03-21T01:30:51;11.30;99.90
7206;DHT22;3644;53.480;10.004;2023-03-21T01:33:18;11.30;99.90
7206;DHT22;3644;53.480;10.004;2023-03-21T01:35:44;11.30;99.90
7206;DHT22;3644;53.480;10.004;2023-03-21T01:38:11;11.20;99.90
7206;DHT22;3644;53.480;10.004;2023-03-21T01:40:37;11.20;99.90
7206;DHT22;3644;53.480;10.004;2023-03-21T01:43:34;11.20;99.90
7206;DHT22;3644;53.480;10.004;2023-03-21T01:48:36;11.20;99.90
7206;DHT22;3644;53.480;10.004;2023-03-21T01:51:04;11.20;99.90
7206;DHT22;3644;53.480;10.004;2023-03-21T01:53:30;11.30;99.90
7206;DHT22;3644;53.480;10.004;2023-03-21T01:55:59;11.30;99.90
7206;DHT22;3644;53.480;10.004;2023-03-21T01:58:26;11.40;99.90
7206;DHT22;3644;53.480;10.004;2023-03-21T02:00:52;11.30;99.90
7206;DHT22;3644;53.480;10.004;2023-03-21T02:03:21;11.40;99.90
7206;DHT22;3644;53.480;10.004;2023-03-21T02:08:12;11.40;99.90
7206;DHT22;3644;53.480;10.004;2023-03-21T02:10:39;11.40;99.90
7206;DHT22;3644;53.480;10.004;2023-03-21T02:13:06;11.40;99.90
7206;DHT22;3644;53.480;10.004;2023-03-21T02:15:40;11.40;99.90
7206;DHT22;3644;53.480;10.004;2023-03-21T02:18:16;11.40;99.90
7206;DHT22;3644;53.480;10.004;2023-03-21T02:26:47;11.40;99.90
7206;DHT22;3644;53.480;10.004;2023-03-21T02:37:45;11.40;99.90
7206;DHT22;3644;53.480;10.004;2023-03-21T02:40:37;11.40;99.90
7206;DHT22;3644;53.480;10.004;2023-03-21T02:45:39;11.40;99.90
7206;DHT22;3644;53.480;10.004;2023-03-21T02:48:11;11.40;99.90
7206;DHT22;3644;53.480;10.004;2023-03-21T02:50:50;11.40;99.90
7206;DHT22;3644;53.480;10.004;2023-03-21T02:53:19;11.50;99.90
7206;DHT22;3644;53.480;10.004;2023-03-21T02:55:46;11.40;99.90
7206;DHT22;3644;53.480;10.004;2023-03-21T02:58:15;11.40;99.90
7206;DHT22;3644;53.480;10.004;2023-03-21T03:00:41;11.50;99.90
7206;DHT22;3644;53.480;10.004;2023-03-21T03:03:08;11.50;99.90
7206;DHT22;3644;53.480;10.004;2023-03-21T03:05:36;11.50;99.90
7206;DHT22;3644;53.480;10.004;2023-03-21T03:10:49;11.40;99.90
7206;DHT22;3644;53.480;10.004;2023-03-21T03:13:28;11.40;99.90
7206;DHT22;3644;53.480;10.004;2023-03-21T03:16:10;11.50;99.90
7206;DHT22;3644;53.480;10.004;2023-03-21T03:18:53;11.50;99.90
7206;DHT22;3644;53.480;10.004;2023-03-21T03:21:35;11.40;99.90
7206;DHT22;3644;53.480;10.004;2023-03-21T03:24:12;11.40;99.90
7206;DHT22;3644;53.480;10.004;2023-03-21T03:26:54;11.40;99.90
7206;DHT22;3644;53.480;10.004;2023-03-21T03:29:21;11.40;99.90
7206;DHT22;3644;53.480;10.004;2023-03-21T03:32:07;11.40;99.90
7206;DHT22;3644;53.480;10.004;2023-03-21T03:34:38;11.50;99.90
7206;DHT22;3644;53.480;10.004;2023-03-21T03:37:07;11.40;99.90
7206;DHT22;3644;53.480;10.004;2023-03-21T03:39:39;11.60;99.90
7206;DHT22;3644;53.480;10.004;2023-03-21T03:42:18;11.50;99.90
7206;DHT22;3644;53.480;10.004;2023-03-21T03:44:45;11.50;99.90
7206;DHT22;3644;53.480;10.004;2023-03-21T03:47:19;11.50;99.90
7206;DHT22;3644;53.480;10.004;2023-03-21T03:49:56;11.50;99.90
7206;DHT22;3644;53.480;10.004;2023-03-21T03:52:28;11.40;99.90
7206;DHT22;3644;53.480;10.004;2023-03-21T03:54:55;11.40;99.90
7206;DHT22;3644;53.480;10.004;2023-03-21T03:57:22;11.30;99.90
7206;DHT22;3644;53.480;10.004;2023-03-21T03:59:49;11.40;99.90
7206;DHT22;3644;53.480;10.004;2023-03-21T04:02:15;11.40;99.90
7206;DHT22;3644;53.480;10.004;2023-03-21T04:04:41;11.40;99.90
7206;DHT22;3644;53.480;10.004;2023-03-21T04:07:07;11.40;99.90
7206;DHT22;3644;53.480;10.004;2023-03-21T04:09:33;11.40;99.90
7206;DHT22;3644;53.480;10.004;2023-03-21T04:11:59;11.40;99.90
7206;DHT22;3644;53.480;10.004;2023-03-21T04:14:25;11.40;99.90
7206;DHT22;3644;53.480;10.004;2023-03-21T04:16:50;11.40;99.90
7206;DHT22;3644;53.480;10.004;2023-03-21T04:19:17;11.40;99.90
7206;DHT22;3644;53.480;10.004;2023-03-21T04:21:43;11.50;99.90
7206;DHT22;3644;53.480;10.004;2023-03-21T04:24:09;11.50;99.90
7206;DHT22;3644;53.480;10.004;2023-03-21T04:26:36;11.50;99.90
7206;DHT22;3644;53.480;10.004;2023-03-21T04:29:02;11.50;99.90
7206;DHT22;3644;53.480;10.004;2023-03-21T04:31:28;11.50;99.90
7206;DHT22;3644;53.480;10.004;2023-03-21T04:33:56;11.50;99.90
7206;DHT22;3644;53.480;10.004;2023-03-21T04:36:22;11.50;99.90
7206;DHT22;3644;53.480;10.004;2023-03-21T04:38:57;11.50;99.90
7206;DHT22;3644;53.480;10.004;2023-03-21T04:41:27;11.50;99.90
7206;DHT22;3644;53.480;10.004;2023-03-21T04:43:53;11.50;99.90
7206;DHT22;3644;53.480;10.004;2023-03-21T04:46:18;11.40;99.90
7206;DHT22;3644;53.480;10.004;2023-03-21T04:48:44;11.50;99.90
7206;DHT22;3644;53.480;10.004;2023-03-21T04:51:10;11.50;99.90
7206;DHT22;3644;53.480;10.004;2023-03-21T04:53:35;11.50;99.90
7206;DHT22;3644;53.480;10.004;2023-03-21T04:56:03;11.40;99.90
7206;DHT22;3644;53.480;10.004;2023-03-21T04:58:28;11.40;99.90
7206;DHT22;3644;53.480;10.004;2023-03-21T05:00:54;11.40;99.90
7206;DHT22;3644;53.480;10.004;2023-03-21T05:03:21;11.40;99.90
7206;DHT22;3644;53.480;10.004;2023-03-21T05:05:47;11.50;99.90
7206;DHT22;3644;53.480;10.004;2023-03-21T05:08:13;11.50;99.90
7206;DHT22;3644;53.480;10.004;2023-03-21T05:10:39;11.50;99.90
7206;DHT22;3644;53.480;10.004;2023-03-21T05:13:05;11.50;99.90
7206;DHT22;3644;53.480;10.004;2023-03-21T05:15:30;11.50;99.90
7206;DHT22;3644;53.480;10.004;2023-03-21T05:17:56;11.60;99.90
7206;DHT22;3644;53.480;10.004;2023-03-21T05:20:37;11.60;99.90
7206;DHT22;3644;53.480;10.004;2023-03-21T05:23:07;11.60;99.90
7206;DHT22;3644;53.480;10.004;2023-03-21T05:25:35;11.60;99.90
7206;DHT22;3644;53.480;10.004;2023-03-21T05:28:03;11.60;99.90
7206;DHT22;3644;53.480;10.004;2023-03-21T05:30:29;11.60;99.90
7206;DHT22;3644;53.480;10.004;2023-03-21T05:32:54;11.60;99.90
7206;DHT22;3644;53.480;10.004;2023-03-21T05:35:20;11.50;99.90
7206;DHT22;3644;53.480;10.004;2023-03-21T05:37:45;11.50;99.90
7206;DHT22;3644;53.480;10.004;2023-03-21T05:40:11;11.50;99.90
7206;DHT22;3644;53.480;10.004;2023-03-21T05:42:37;11.50;99.90
7206;DHT22;3644;53.480;10.004;2023-03-21T05:45:03;11.50;99.90
7206;DHT22;3644;53.480;10.004;2023-03-21T05:47:28;11.50;99.90
7206;DHT22;3644;53.480;10.004;2023-03-21T05:49:54;11.50;99.90
7206;DHT22;3644;53.480;10.004;2023-03-21T05:52:20;11.50;99.90
7206;DHT22;3644;53.480;10.004;2023-03-21T05:54:45;11.40;99.90
7206;DHT22;3644;53.480;10.004;2023-03-21T05:57:11;11.60;99.90
7206;DHT22;3644;53.480;10.004;2023-03-21T05:59:36;11.60;99.90
7206;DHT22;3644;53.480;10.004;2023-03-21T06:02:02;11.60;99.90
7206;DHT22;3644;53.480;10.004;2023-03-21T06:04:27;11.50;99.90
7206;DHT22;3644;53.480;10.004;2023-03-21T06:06:53;11.60;99.90
7206;DHT22;3644;53.480;10.004;2023-03-21T06:09:19;11.70;99.90
7206;DHT22;3644;53.480;10.004;2023-03-21T06:11:47;11.80;99.90
7206;DHT22;3644;53.480;10.004;2023-03-21T06:14:14;11.80;99.90
7206;DHT22;3644;53.480;10.004;2023-03-21T06:16:39;11.90;99.90
7206;DHT22;3644;53.480;10.004;2023-03-21T06:19:05;12.10;99.90
7206;DHT22;3644;53.480;10.004;2023-03-21T06:21:30;12.10;99.90
7206;DHT22;3644;53.480;10.004;2023-03-21T06:23:56;12.10;99.90
7206;DHT22;3644;53.480;10.004;2023-03-21T06:26:22;12.00;99.90
7206;DHT22;3644;53.480;10.004;2023-03-21T06:28:52;12.00;99.90
7206;DHT22;3644;53.480;10.004;2023-03-21T06:31:18;11.90;99.90
7206;DHT22;3644;53.480;10.004;2023-03-21T06:33:47;11.90;99.90
7206;DHT22;3644;53.480;10.004;2023-03-21T06:36:13;11.80;99.90
7206;DHT22;3644;53.480;10.004;2023-03-21T06:38:38;11.90;99.90
7206;DHT22;3644;53.480;10.004;2023-03-21T06:41:04;11.90;99.90
7206;DHT22;3644;53.480;10.004;2023-03-21T06:43:30;11.90;99.90
7206;DHT22;3644;53.480;10.004;2023-03-21T06:45:57;11.90;99.90
7206;DHT22;3644;53.480;10.004;2023-03-21T06:48:23;11.90;99.90
7206;DHT22;3644;53.480;10.004;2023-03-21T06:50:51;11.90;99.90
7206;DHT22;3644;53.480;10.004;2023-03-21T06:53:17;11.90;99.90
7206;DHT22;3644;53.480;10.004;2023-03-21T06:55:48;12.00;99.90
7206;DHT22;3644;53.480;10.004;2023-03-21T06:58:14;12.10;99.90
7206;DHT22;3644;53.480;10.004;2023-03-21T07:00:40;12.20;99.90
7206;DHT22;3644;53.480;10.004;2023-03-21T07:03:06;12.10;99.90
7206;DHT22;3644;53.480;10.004;2023-03-21T07:05:31;12.20;99.90
7206;DHT22;3644;53.480;10.004;2023-03-21T07:07:59;12.20;99.90
7206;DHT22;3644;53.480;10.004;2023-03-21T07:10:25;12.20;99.90
7206;DHT22;3644;53.480;10.004;2023-03-21T07:12:50;12.30;99.90
7206;DHT22;3644;53.480;10.004;2023-03-21T07:15:16;12.30;99.90
7206;DHT22;3644;53.480;10.004;2023-03-21T07:17:41;12.30;99.90
7206;DHT22;3644;53.480;10.004;2023-03-21T07:20:08;12.30;99.90
7206;DHT22;3644;53.480;10.004;2023-03-21T07:22:34;12.20;99.90
7206;DHT22;3644;53.480;10.004;2023-03-21T07:25:00;12.30;99.90
7206;DHT22;3644;53.480;10.004;2023-03-21T07:27:25;12.30;99.90
7206;DHT22;3644;53.480;10.004;2023-03-21T07:29:51;12.30;99.90
7206;DHT22;3644;53.480;10.004;2023-03-21T07:32:16;12.30;99.90
7206;DHT22;3644;53.480;10.004;2023-03-21T07:34:42;12.30;99.90
7206;DHT22;3644;53.480;10.004;2023-03-21T07:37:07;12.30;99.90
7206;DHT22;3644;53.480;10.004;2023-03-21T07:39:33;12.20;99.90
7206;DHT22;3644;53.480;10.004;2023-03-21T07:41:59;12.30;99.90
7206;DHT22;3644;53.480;10.004;2023-03-21T07:44:25;12.30;99.90
7206;DHT22;3644;53.480;10.004;2023-03-21T07:46:51;12.30;99.90
7206;DHT22;3644;53.480;10.004;2023-03-21T07:49:16;12.30;99.90
7206;DHT22;3644;53.480;10.004;2023-03-21T07:51:42;12.30;99.90
7206;DHT22;3644;53.480;10.004;2023-03-21T07:54:08;12.30;99.90
7206;DHT22;3644;53.480;10.004;2023-03-21T07:56:33;12.20;99.90
7206;DHT22;3644;53.480;10.004;2023-03-21T07:58:59;12.30;99.90
7206;DHT22;3644;53.480;10.004;2023-03-21T08:01:25;12.30;99.90
7206;DHT22;3644;53.480;10.004;2023-03-21T08:03:51;12.30;99.90
7206;DHT22;3644;53.480;10.004;2023-03-21T08:06:18;12.50;99.90
7206;DHT22;3644;53.480;10.004;2023-03-21T08:08:44;12.50;99.90
7206;DHT22;3644;53.480;10.004;2023-03-21T08:11:11;12.50;99.90
7206;DHT22;3644;53.480;10.004;2023-03-21T08:13:37;12.50;99.90
7206;DHT22;3644;53.480;10.004;2023-03-21T08:16:03;12.50;99.90
7206;DHT22;3644;53.480;10.004;2023-03-21T08:18:29;12.50;99.90
7206;DHT22;3644;53.480;10.004;2023-03-21T08:20:56;12.50;99.90
7206;DHT22;3644;53.480;10.004;2023-03-21T08:23:22;12.50;99.90
7206;DHT22;3644;53.480;10.004;2023-03-21T08:25:52;12.50;99.90
7206;DHT22;3644;53.480;10.004;2023-03-21T08:28:19;12.60;99.90
7206;DHT22;3644;53.480;10.004;2023-03-21T08:30:45;12.60;99.90
7206;DHT22;3644;53.480;10.004;2023-03-21T08:33:11;12.60;99.90
7206;DHT22;3644;53.480;10.004;2023-03-21T08:35:38;12.60;99.90
7206;DHT22;3644;53.480;10.004;2023-03-21T08:38:04;12.60;99.90
7206;DHT22;3644;53.480;10.004;2023-03-21T08:40:30;12.60;99.90
7206;DHT22;3644;53.480;10.004;2023-03-21T08:42:55;12.70;99.90
7206;DHT22;3644;53.480;10.004;2023-03-21T08:45:21;12.70;99.90
7206;DHT22;3644;53.480;10.004;2023-03-21T08:47:48;12.70;99.90
7206;DHT22;3644;53.480;10.004;2023-03-21T08:50:17;12.70;99.90
7206;DHT22;3644;53.480;10.004;2023-03-21T08:52:42;12.70;99.90
7206;DHT22;3644;53.480;10.004;2023-03-21T08:55:09;12.80;99.90
7206;DHT22;3644;53.480;10.004;2023-03-21T08:57:34;12.80;99.90
7206;DHT22;3644;53.480;10.004;2023-03-21T09:00:01;12.80;99.90
7206;DHT22;3644;53.480;10.004;2023-03-21T09:02:31;12.80;99.90
7206;DHT22;3644;53.480;10.004;2023-03-21T09:04:56;12.80;99.90
7206;DHT22;3644;53.480;10.004;2023-03-21T09:07:23;12.80;99.90
7206;DHT22;3644;53.480;10.004;2023-03-21T09:09:50;12.90;99.90
7206;DHT22;3644;53.480;10.004;2023-03-21T09:12:17;12.90;99.90
7206;DHT22;3644;53.480;10.004;2023-03-21T09:14:43;13.00;99.90
7206;DHT22;3644;53.480;10.004;2023-03-21T09:17:08;13.00;99.90
7206;DHT22;3644;53.480;10.004;2023-03-21T09:19:34;13.10;99.90
7206;DHT22;3644;53.480;10.004;2023-03-21T09:22:00;13.10;99.90
7206;DHT22;3644;53.480;10.004;2023-03-21T09:24:29;13.20;99.90
7206;DHT22;3644;53.480;10.004;2023-03-21T09:26:55;13.10;99.90
7206;DHT22;3644;53.480;10.004;2023-03-21T09:29:21;13.20;99.90
7206;DHT22;3644;53.480;10.004;2023-03-21T09:31:47;13.20;99.90
7206;DHT22;3644;53.480;10.004;2023-03-21T09:34:14;13.30;99.90
7206;DHT22;3644;53.480;10.004;2023-03-21T09:36:40;13.30;99.90
7206;DHT22;3644;53.480;10.004;2023-03-21T09:39:08;13.40;99.90
7206;DHT22;3644;53.480;10.004;2023-03-21T09:41:56;13.40;99.90
7206;DHT22;3644;53.480;10.004;2023-03-21T09:47:20;13.40;99.90
7206;DHT22;3644;53.480;10.004;2023-03-21T09:50:01;13.40;99.90
7206;DHT22;3644;53.480;10.004;2023-03-21T09:52:35;13.50;99.90
7206;DHT22;3644;53.480;10.004;2023-03-21T09:55:04;13.60;99.90
7206;DHT22;3644;53.480;10.004;2023-03-21T09:57:44;13.60;99.90
7206;DHT22;3644;53.480;10.004;2023-03-21T10:00:16;13.70;99.90
7206;DHT22;3644;53.480;10.004;2023-03-21T10:02:48;13.80;99.90
7206;DHT22;3644;53.480;10.004;2023-03-21T10:05:22;13.80;99.90
7206;DHT22;3644;53.480;10.004;2023-03-21T10:08:22;13.80;99.90
7206;DHT22;3644;53.480;10.004;2023-03-21T10:11:16;13.80;99.90
7206;DHT22;3644;53.480;10.004;2023-03-21T10:13:48;13.80;99.90
7206;DHT22;3644;53.480;10.004;2023-03-21T10:16:20;13.80;99.90
7206;DHT22;3644;53.480;10.004;2023-03-21T10:18:47;13.80;99.90
7206;DHT22;3644;53.480;10.004;2023-03-21T10:21:23;13.80;99.90
7206;DHT22;3644;53.480;10.004;2023-03-21T10:23:50;13.80;99.90
7206;DHT22;3644;53.480;10.004;2023-03-21T10:26:18;13.70;99.90
7206;DHT22;3644;53.480;10.004;2023-03-21T10:28:46;13.70;99.90
7206;DHT22;3644;53.480;10.004;2023-03-21T10:31:18;13.70;99.90
7206;DHT22;3644;53.480;10.004;2023-03-21T10:33:48;13.70;99.90
7206;DHT22;3644;53.480;10.004;2023-03-21T10:36:15;13.80;99.90
7206;DHT22;3644;53.480;10.004;2023-03-21T10:38:48;13.90;99.90
7206;DHT22;3644;53.480;10.004;2023-03-21T10:41:14;13.90;99.90
7206;DHT22;3644;53.480;10.004;2023-03-21T10:43:41;13.90;99.90
7206;DHT22;3644;53.480;10.004;2023-03-21T10:46:16;13.90;99.90
7206;DHT22;3644;53.480;10.004;2023-03-21T10:48:43;13.80;99.90
7206;DHT22;3644;53.480;10.004;2023-03-21T10:51:16;13.80;99.90
7206;DHT22;3644;53.480;10.004;2023-03-21T10:53:54;13.90;99.90
7206;DHT22;3644;53.480;10.004;2023-03-21T10:56:27;13.80;99.90
7206;DHT22;3644;53.480;10.004;2023-03-21T10:58:54;13.70;99.90
7206;DHT22;3644;53.480;10.004;2023-03-21T11:01:30;13.70;99.90
7206;DHT22;3644;53.480;10.004;2023-03-21T11:03:59;13.50;99.90
7206;DHT22;3644;53.480;10.004;2023-03-21T11:06:26;13.50;99.90
7206;DHT22;3644;53.480;10.004;2023-03-21T11:08:55;13.70;99.90
7206;DHT22;3644;53.480;10.004;2023-03-21T11:11:27;13.70;99.90
7206;DHT22;3644;53.480;10.004;2023-03-21T11:13:56;13.70;99.90
7206;DHT22;3644;53.480;10.004;2023-03-21T11:16:29;13.50;99.90
7206;DHT22;3644;53.480;10.004;2023-03-21T11:19:10;13.50;99.90
7206;DHT22;3644;53.480;10.004;2023-03-21T11:21:36;13.60;99.90
7206;DHT22;3644;53.480;10.004;2023-03-21T11:24:02;13.60;99.90
7206;DHT22;3644;53.480;10.004;2023-03-21T11:26:32;13.60;99.90
7206;DHT22;3644;53.480;10.004;2023-03-21T11:29:30;13.80;99.90
7206;DHT22;3644;53.480;10.004;2023-03-21T11:32:12;13.90;99.90
7206;DHT22;3644;53.480;10.004;2023-03-21T11:34:50;13.90;99.90
7206;DHT22;3644;53.480;10.004;2023-03-21T11:37:25;13.90;99.90
7206;DHT22;3644;53.480;10.004;2023-03-21T11:43:00;13.90;99.90
7206;DHT22;3644;53.480;10.004;2023-03-21T11:45:28;14.00;99.90
7206;DHT22;3644;53.480;10.004;2023-03-21T11:47:56;13.90;99.90
7206;DHT22;3644;53.480;10.004;2023-03-21T11:50:44;14.00;99.90
7206;DHT22;3644;53.480;10.004;2023-03-21T11:56:24;14.00;99.90
7206;DHT22;3644;53.480;10.004;2023-03-21T12:10:28;14.30;99.90
7206;DHT22;3644;53.480;10.004;2023-03-21T12:18:42;14.30;99.90
7206;DHT22;3644;53.480;10.004;2023-03-21T12:21:33;14.30;99.90
7206;DHT22;3644;53.480;10.004;2023-03-21T12:24:11;14.30;99.90
7206;DHT22;3644;53.480;10.004;2023-03-21T12:27:03;14.30;99.90
7206;DHT22;3644;53.480;10.004;2023-03-21T12:32:16;14.50;99.90
7206;DHT22;3644;53.480;10.004;2023-03-21T12:38:05;14.40;99.90
7206;DHT22;3644;53.480;10.004;2023-03-21T12:46:05;14.40;99.90
7206;DHT22;3644;53.480;10.004;2023-03-21T12:48:44;14.30;99.90
7206;DHT22;3644;53.480;10.004;2023-03-21T12:51:14;14.40;99.90
7206;DHT22;3644;53.480;10.004;2023-03-21T12:53:47;14.20;99.90
7206;DHT22;3644;53.480;10.004;2023-03-21T12:57:07;14.20;99.90
7206;DHT22;3644;53.480;10.004;2023-03-21T13:01:50;14.20;99.90
7206;DHT22;3644;53.480;10.004;2023-03-21T13:07:04;14.20;99.90
7206;DHT22;3644;53.480;10.004;2023-03-21T13:09:36;14.30;99.90
7206;DHT22;3644;53.480;10.004;2023-03-21T13:12:18;14.30;99.90
7206;DHT22;3644;53.480;10.004;2023-03-21T13:14:54;14.30;99.90
7206;DHT22;3644;53.480;10.004;2023-03-21T13:17:28;14.30;99.90
7206;DHT22;3644;53.480;10.004;2023-03-21T13:20:48;14.30;99.90
7206;DHT22;3644;53.480;10.004;2023-03-21T13:22:48;14.20;99.90
7206;DHT22;3644;53.480;10.004;2023-03-21T13:25:18;14.10;99.90
7206;DHT22;3644;53.480;10.004;2023-03-21T13:27:50;14.10;99.90
7206;DHT22;3644;53.480;10.004;2023-03-21T13:32:47;14.10;99.90
7206;DHT22;3644;53.480;10.004;2023-03-21T13:35:39;14.10;99.90
7206;DHT22;3644;53.480;10.004;2023-03-21T13:38:25;14.10;99.90
7206;DHT22;3644;53.480;10.004;2023-03-21T13:41:07;14.10;99.90
7206;DHT22;3644;53.480;10.004;2023-03-21T13:46:12;14.20;99.90
7206;DHT22;3644;53.480;10.004;2023-03-21T13:56:49;14.00;99.90
7206;DHT22;3644;53.480;10.004;2023-03-21T13:59:41;14.10;99.90
7206;DHT22;3644;53.480;10.004;2023-03-21T14:04:41;14.10;99.90
7206;DHT22;3644;53.480;10.004;2023-03-21T14:07:11;14.20;99.90
7206;DHT22;3644;53.480;10.004;2023-03-21T14:09:39;14.20;99.90
7206;DHT22;3644;53.480;10.004;2023-03-21T14:12:08;14.10;99.90
7206;DHT22;3644;53.480;10.004;2023-03-21T14:14:42;14.10;99.90
7206;DHT22;3644;53.480;10.004;2023-03-21T14:17:24;14.10;99.90
7206;DHT22;3644;53.480;10.004;2023-03-21T14:20:01;14.20;99.90
7206;DHT22;3644;53.480;10.004;2023-03-21T14:22:32;14.20;99.90
7206;DHT22;3644;53.480;10.004;2023-03-21T14:25:02;14.20;99.90
7206;DHT22;3644;53.480;10.004;2023-03-21T14:27:33;14.10;99.90
7206;DHT22;3644;53.480;10.004;2023-03-21T14:30:00;14.10;99.90
7206;DHT22;3644;53.480;10.004;2023-03-21T14:32:28;14.10;99.90
7206;DHT22;3644;53.480;10.004;2023-03-21T14:34:54;14.10;99.90
7206;DHT22;3644;53.480;10.004;2023-03-21T14:37:38;14.10;99.90
7206;DHT22;3644;53.480;10.004;2023-03-21T14:40:27;14.00;99.90
7206;DHT22;3644;53.480;10.004;2023-03-21T14:42:52;13.90;99.90
7206;DHT22;3644;53.480;10.004;2023-03-21T14:45:26;14.00;99.90
7206;DHT22;3644;53.480;10.004;2023-03-21T14:48:00;13.90;99.90
7206;DHT22;3644;53.480;10.004;2023-03-21T14:58:22;13.80;99.90
7206;DHT22;3644;53.480;10.004;2023-03-21T15:00:49;13.70;99.90
7206;DHT22;3644;53.480;10.004;2023-03-21T15:03:17;13.70;99.90
7206;DHT22;3644;53.480;10.004;2023-03-21T15:05:44;13.80;99.90
7206;DHT22;3644;53.480;10.004;2023-03-21T15:10:36;13.70;99.90
7206;DHT22;3644;53.480;10.004;2023-03-21T15:13:14;13.80;99.90
7206;DHT22;3644;53.480;10.004;2023-03-21T15:15:41;13.70;99.90
7206;DHT22;3644;53.480;10.004;2023-03-21T15:18:10;13.70;99.90
7206;DHT22;3644;53.480;10.004;2023-03-21T15:20:38;13.80;99.90
7206;DHT22;3644;53.480;10.004;2023-03-21T15:23:17;13.70;99.90
7206;DHT22;3644;53.480;10.004;2023-03-21T15:25:44;13.70;99.90
7206;DHT22;3644;53.480;10.004;2023-03-21T15:28:13;13.70;99.90
7206;DHT22;3644;53.480;10.004;2023-03-21T15:30:47;13.70;99.90
7206;DHT22;3644;53.480;10.004;2023-03-21T15:33:14;13.70;99.90
7206;DHT22;3644;53.480;10.004;2023-03-21T15:35:43;13.60;99.90
7206;DHT22;3644;53.480;10.004;2023-03-21T15:38:22;13.60;99.90
7206;DHT22;3644;53.480;10.004;2023-03-21T15:40:47;13.60;99.90
7206;DHT22;3644;53.480;10.004;2023-03-21T15:43:19;13.50;99.90
7206;DHT22;3644;53.480;10.004;2023-03-21T15:45:52;13.50;99.90
7206;DHT22;3644;53.480;10.004;2023-03-21T15:48:25;13.50;99.90
7206;DHT22;3644;53.480;10.004;2023-03-21T15:50:59;13.60;99.90
7206;DHT22;3644;53.480;10.004;2023-03-21T15:53:25;13.60;99.90
7206;DHT22;3644;53.480;10.004;2023-03-21T15:55:55;13.50;99.90
7206;DHT22;3644;53.480;10.004;2023-03-21T15:58:22;13.50;99.90
7206;DHT22;3644;53.480;10.004;2023-03-21T16:00:51;13.50;99.90
7206;DHT22;3644;53.480;10.004;2023-03-21T16:03:26;13.40;99.90
7206;DHT22;3644;53.480;10.004;2023-03-21T16:06:06;13.40;99.90
7206;DHT22;3644;53.480;10.004;2023-03-21T16:08:35;13.40;99.90
7206;DHT22;3644;53.480;10.004;2023-03-21T16:11:12;13.40;99.90
7206;DHT22;3644;53.480;10.004;2023-03-21T16:13:39;13.40;99.90
7206;DHT22;3644;53.480;10.004;2023-03-21T16:16:04;13.30;99.90
7206;DHT22;3644;53.480;10.004;2023-03-21T16:18:30;13.40;99.90
7206;DHT22;3644;53.480;10.004;2023-03-21T16:20:56;13.30;99.90
7206;DHT22;3644;53.480;10.004;2023-03-21T16:23:23;13.40;99.90
7206;DHT22;3644;53.480;10.004;2023-03-21T16:25:49;13.40;99.90
7206;DHT22;3644;53.480;10.004;2023-03-21T16:28:22;13.50;99.90
7206;DHT22;3644;53.480;10.004;2023-03-21T16:30:47;13.50;99.90
7206;DHT22;3644;53.480;10.004;2023-03-21T16:33:13;13.40;99.90
7206;DHT22;3644;53.480;10.004;2023-03-21T16:35:39;13.40;99.90
7206;DHT22;3644;53.480;10.004;2023-03-21T16:38:04;13.40;99.90
7206;DHT22;3644;53.480;10.004;2023-03-21T16:40:33;13.40;99.90
7206;DHT22;3644;53.480;10.004;2023-03-21T16:42:59;13.40;99.90
7206;DHT22;3644;53.480;10.004;2023-03-21T16:45:25;13.40;99.90
7206;DHT22;3644;53.480;10.004;2023-03-21T16:47:53;13.50;99.90
7206;DHT22;3644;53.480;10.004;2023-03-21T16:50:51;13.50;99.90
7206;DHT22;3644;53.480;10.004;2023-03-21T16:53:10;13.40;99.90
7206;DHT22;3644;53.480;10.004;2023-03-21T16:55:37;13.30;99.90
7206;DHT22;3644;53.480;10.004;2023-03-21T16:58:04;13.30;99.90
7206;DHT22;3644;53.480;10.004;2023-03-21T17:00:30;13.30;99.90
7206;DHT22;3644;53.480;10.004;2023-03-21T17:02:59;13.30;99.90
7206;DHT22;3644;53.480;10.004;2023-03-21T17:05:26;13.40;99.90
7206;DHT22;3644;53.480;10.004;2023-03-21T17:07:55;13.30;99.90
7206;DHT22;3644;53.480;10.004;2023-03-21T17:10:26;13.30;99.90
7206;DHT22;3644;53.480;10.004;2023-03-21T17:12:52;13.20;99.90
7206;DHT22;3644;53.480;10.004;2023-03-21T17:15:19;13.20;99.90
7206;DHT22;3644;53.480;10.004;2023-03-21T17:17:45;13.30;99.90
7206;DHT22;3644;53.480;10.004;2023-03-21T17:22:44;13.30;99.90
7206;DHT22;3644;53.480;10.004;2023-03-21T17:25:10;13.30;99.90
7206;DHT22;3644;53.480;10.004;2023-03-21T17:27:36;13.30;99.90
7206;DHT22;3644;53.480;10.004;2023-03-21T17:30:02;13.20;99.90
7206;DHT22;3644;53.480;10.004;2023-03-21T17:32:28;13.20;99.90
7206;DHT22;3644;53.480;10.004;2023-03-21T17:34:53;13.20;99.90